TimeMST,TemperatureF,Dew PointF,Humidity,Sea Level PressureIn,VisibilityMPH,Wind Direction,Wind SpeedMPH,Gust SpeedMPH,PrecipitationIn,Events,Conditions,WindDirDegrees,DateUTC
12:53 AM,26.1,9.0,49,30.14,10.0,SW,11.5,-,N/A,,Clear,220,2013-01-19 07:53:00
1:53 AM,25.0,9.0,51,30.14,10.0,West,13.8,26.5,N/A,,Clear,260,2013-01-19 08:53:00
2:53 AM,26.1,6.1,43,30.13,10.0,WSW,12.7,-,N/A,,Clear,250,2013-01-19 09:53:00
3:53 AM,26.1,6.1,43,30.16,10.0,SSW,5.8,-,N/A,,Clear,210,2013-01-19 10:53:00
4:53 AM,21.9,5.0,48,30.24,10.0,South,4.6,-,N/A,,Clear,180,2013-01-19 11:53:00
5:53 AM,19.9,3.9,50,30.25,10.0,WSW,11.5,-,N/A,,Clear,250,2013-01-19 12:53:00
6:53 AM,18.0,3.9,54,30.30,10.0,Variable,6.9,-,N/A,,Clear,0,2013-01-19 13:53:00
7:53 AM,19.9,3.0,48,30.30,10.0,West,3.5,-,N/A,,Clear,280,2013-01-19 14:53:00
8:53 AM,21.0,5.0,50,30.33,10.0,South,3.5,-,N/A,,Clear,170,2013-01-19 15:53:00
9:53 AM,25.0,10.9,55,30.32,10.0,East,4.6,-,N/A,,Clear,80,2013-01-19 16:53:00
10:53 AM,32.0,12.0,44,30.26,10.0,WSW,4.6,-,N/A,,Clear,250,2013-01-19 17:53:00
11:53 AM,37.0,16.0,42,30.22,10.0,SW,16.1,-,0.00,,Clear,220,2013-01-19 18:53:00
12:53 PM,37.0,16.0,42,30.21,10.0,West,23.0,-,N/A,,Clear,270,2013-01-19 19:53:00
1:53 PM,37.9,15.1,39,30.20,10.0,West,27.6,-,N/A,,Clear,270,2013-01-19 20:53:00
2:53 PM,37.9,15.1,39,30.19,10.0,WSW,18.4,-,N/A,,Clear,250,2013-01-19 21:53:00
3:53 PM,36.0,14.0,41,30.20,10.0,WSW,25.3,-,N/A,,Clear,240,2013-01-19 22:53:00
4:53 PM,33.1,14.0,46,30.24,10.0,WSW,21.9,-,N/A,,Clear,240,2013-01-19 23:53:00
5:53 PM,30.9,12.0,46,30.27,10.0,WSW,23.0,-,N/A,,Clear,240,2013-01-20 00:53:00
6:53 PM,28.0,10.0,47,30.30,10.0,SW,19.6,-,N/A,,Clear,220,2013-01-20 01:53:00
7:53 PM,26.1,9.0,49,30.30,10.0,SW,16.1,-,N/A,,Clear,220,2013-01-20 02:53:00
8:53 PM,26.1,8.1,47,30.27,10.0,SW,20.7,-,N/A,,Clear,220,2013-01-20 03:53:00
9:53 PM,30.0,7.0,38,30.24,10.0,SSW,13.8,-,N/A,,Clear,210,2013-01-20 04:53:00
10:53 PM,28.0,8.1,43,30.20,10.0,SW,20.7,-,N/A,,Clear,230,2013-01-20 05:53:00
11:53 PM,28.0,8.1,43,30.17,10.0,SW,20.7,-,N/A,,Clear,230,2013-01-20 06:53:00